Time;durP1;ratioP1;P1;durP2;ratioP2;P2;SDS_P1;SDS_P2;PMS_P1;PMS_P2;Temp;Humidity;BMP_temperature;BMP_pressure;BME280_temperature;BME280_humidity;BME280_pressure;Samples;Min_cycle;Max_cycle;Signal;HPM_P1;HPM_P2
2022/08/18 00:00:13;;;;;;;18.70;10.20;;;;;;;21.09;59.14;98554.39;106305;1274;22563;-88
2022/08/18 00:04:08;;;;;;;19.20;9.50;;;;;;;21.06;59.35;98558.30;106489;1274;25251;-86
2022/08/18 00:06:40;;;;;;;21.90;10.40;;;;;;;21.04;59.35;98561.46;106444;1275;25333;-86
2022/08/18 00:09:59;;;;;;;16.80;10.00;;;;;;;21.01;59.36;98561.52;106413;1274;22550;-86
2022/08/18 00:13:33;;;;;;;;;;;;;;;;;;;;;
2022/08/18 00:16:40;;;;;;;16.90;9.80;;;;;;;20.92;59.56;98553.52;106080;1277;22607;-87
2022/08/18 00:19:56;;;;;;;16.50;9.90;;;;;;;20.89;59.67;98548.92;106066;1277;25296;-86
2022/08/18 00:22:57;;;;;;;;;;;;;;;;;;;;;
2022/08/18 00:26:04;;;;;;;17.60;9.80;;;;;;;20.81;59.84;98541.20;106022;1278;22538;-86
2022/08/18 00:29:00;;;;;;;17.20;9.40;;;;;;;20.73;59.82;98544.81;105888;1277;22624;-86
2022/08/18 00:31:44;;;;;;;16.30;9.00;;;;;;;20.67;59.90;98549.08;105868;1278;25408;-86
2022/08/18 00:34:22;;;;;;;14.50;8.40;;;;;;;20.64;59.97;98552.58;105876;1278;24279;-87
2022/08/18 00:37:08;;;;;;;15.40;8.40;;;;;;;20.64;59.99;98553.33;105796;1278;24279;-84
2022/08/18 00:39:53;;;;;;;16.80;9.30;;;;;;;20.66;60.09;98550.80;105621;1277;25185;-85
2022/08/18 00:42:29;;;;;;;18.20;10.00;;;;;;;20.67;60.20;98546.89;105417;1278;22687;-83
2022/08/18 00:45:24;;;;;;;;;;;;;;;;;;;;;
2022/08/18 00:48:19;;;;;;;19.00;9.40;;;;;;;20.59;60.23;98537.48;105774;1277;24917;-83
2022/08/18 00:51:06;;;;;;;18.60;9.90;;;;;;;20.55;60.39;98535.30;105783;1274;24275;-84
2022/08/18 00:53:46;;;;;;;18.20;9.40;;;;;;;20.54;60.34;98532.49;105996;1273;24124;-87
2022/08/18 00:56:33;;;;;;;17.50;9.70;;;;;;;20.53;60.44;98531.26;106087;1272;22742;-83
2022/08/18 00:59:11;;;;;;;21.20;9.50;;;;;;;20.53;60.79;98529.75;106148;1274;22616;-85
2022/08/18 01:01:50;;;;;;;15.40;8.10;;;;;;;20.51;60.62;98526.90;106145;1274;25394;-85
2022/08/18 01:04:33;;;;;;;18.70;9.10;;;;;;;20.50;60.71;98529.69;106407;1274;22541;-87
2022/08/18 01:07:15;;;;;;;17.00;9.70;;;;;;;20.52;60.83;98536.17;106316;1274;24220;-87
2022/08/18 01:09:50;;;;;;;17.10;8.80;;;;;;;20.54;60.93;98539.20;106230;1274;22897;-87
2022/08/18 01:12:24;;;;;;;15.80;9.40;;;;;;;20.55;60.91;98538.02;106363;1274;22557;-87
2022/08/18 01:14:55;;;;;;;15.60;10.10;;;;;;;20.55;60.99;98535.70;106360;1274;24343;-88
2022/08/18 01:23:19;;;;;;;17.10;8.30;;;;;;;20.55;60.83;98537.14;106005;1274;22568;-88
2022/08/18 01:26:05;;;;;;;14.70;8.90;;;;;;;20.58;60.92;98534.63;106404;1274;22534;-87
2022/08/18 01:28:36;;;;;;;15.50;8.70;;;;;;;20.57;60.79;98535.20;106461;1274;22782;-88
2022/08/18 01:31:05;;;;;;;15.20;7.80;;;;;;;20.54;60.82;98537.20;106195;1274;24392;-85
2022/08/18 01:33:43;;;;;;;17.90;8.70;;;;;;;20.53;61.01;98539.85;106495;1274;22533;-86
2022/08/18 01:36:25;;;;;;;16.40;8.80;;;;;;;20.50;60.73;98536.61;106432;1274;22556;-88
2022/08/18 01:38:55;;;;;;;15.90;9.30;;;;;;;20.44;60.79;98535.16;106346;1274;22554;-86
2022/08/18 01:41:25;;;;;;;13.70;9.30;;;;;;;20.35;60.89;98538.48;106390;1274;24230;-87
2022/08/18 01:43:58;;;;;;;13.00;8.20;;;;;;;20.30;61.18;98537.64;106440;1272;25294;-86
2022/08/18 01:46:42;;;;;;;14.10;8.00;;;;;;;20.31;61.18;98534.05;106504;1274;22541;-86
2022/08/18 01:49:14;;;;;;;14.00;7.80;;;;;;;20.33;61.29;98530.02;106344;1274;22704;-87
2022/08/18 01:51:45;;;;;;;16.00;8.70;;;;;;;20.32;61.38;98535.08;106368;1274;22549;-89
2022/08/18 01:54:15;;;;;;;16.70;8.90;;;;;;;20.32;61.38;98532.84;106471;1274;23899;-86
2022/08/18 01:56:49;;;;;;;16.30;9.00;;;;;;;20.35;61.55;98529.27;106140;1274;24237;-87
2022/08/18 01:59:26;;;;;;;18.00;9.10;;;;;;;20.32;61.51;98531.83;106435;1274;24269;-87
2022/08/18 02:02:23;;;;;;;14.40;8.90;;;;;;;20.20;61.51;98531.02;106403;1274;22559;-88
2022/08/18 02:05:00;;;;;;;15.90;9.70;;;;;;;20.11;61.48;98536.30;106338;1274;22816;-87
2022/08/18 02:07:30;;;;;;;14.90;9.20;;;;;;;20.01;61.58;98536.23;106421;1274;22659;-86
2022/08/18 02:10:06;;;;;;;14.10;8.80;;;;;;;19.89;61.55;98534.95;106444;1274;25315;-86
2022/08/18 02:12:36;;;;;;;15.30;8.70;;;;;;;19.81;61.76;98538.06;106543;1272;22556;-88
2022/08/18 02:15:09;;;;;;;15.30;8.90;;;;;;;19.79;61.82;98537.64;106457;1274;24513;-88
2022/08/18 02:17:42;;;;;;;14.50;8.40;;;;;;;19.75;61.77;98535.48;106236;1274;22653;-88
2022/08/18 02:20:17;;;;;;;15.00;8.60;;;;;;;19.70;61.82;98532.48;106489;1274;24278;-86
2022/08/18 02:22:57;;;;;;;15.40;8.30;;;;;;;19.66;61.98;98536.55;106338;1274;22542;-86
2022/08/18 02:25:37;;;;;;;14.90;9.00;;;;;;;19.64;62.15;98531.41;106313;1274;24270;-87
2022/08/18 02:28:31;;;;;;;14.60;9.20;;;;;;;19.64;62.12;98529.91;106384;1274;23972;-86
2022/08/18 02:31:32;;;;;;;15.80;8.90;;;;;;;19.62;62.15;98527.27;106390;1274;22694;-89
2022/08/18 02:34:08;;;;;;;13.60;8.40;;;;;;;19.57;62.21;98520.64;106211;1274;24418;-88
2022/08/18 02:36:38;;;;;;;14.10;7.80;;;;;;;19.53;62.32;98517.73;106156;1274;22483;-88
2022/08/18 02:39:16;;;;;;;12.70;8.00;;;;;;;19.51;62.36;98517.23;106425;1274;22818;-88
2022/08/18 02:41:49;;;;;;;13.90;8.20;;;;;;;19.49;62.49;98516.16;106131;1274;23958;-85
2022/08/18 02:44:23;;;;;;;15.40;8.30;;;;;;;19.48;62.49;98515.94;106447;1274;25365;-86
2022/08/18 02:47:09;;;;;;;15.00;8.60;;;;;;;19.49;62.56;98514.20;106444;1274;22634;-87
2022/08/18 02:49:50;;;;;;;14.60;8.70;;;;;;;19.48;62.52;98508.77;106360;1274;22559;-87
2022/08/18 02:52:31;;;;;;;16.30;8.60;;;;;;;19.44;62.67;98513.89;106455;1271;22698;-87
2022/08/18 02:55:09;;;;;;;14.30;8.50;;;;;;;19.42;62.82;98509.91;106388;1274;22704;-86
2022/08/18 02:57:48;;;;;;;13.20;8.00;;;;;;;19.43;62.71;98508.55;106440;1274;22531;-85
2022/08/18 03:00:24;;;;;;;12.40;7.60;;;;;;;19.41;62.84;98503.15;106238;1274;22659;-85
2022/08/18 03:02:56;;;;;;;15.20;8.10;;;;;;;19.40;63.03;98506.77;106323;1274;24296;-89
2022/08/18 03:05:38;;;;;;;14.10;8.20;;;;;;;19.42;63.02;98512.48;106338;1274;22551;-86
2022/08/18 03:08:10;;;;;;;16.10;9.30;;;;;;;19.47;63.07;98516.04;106452;1274;24309;-88
2022/08/18 03:10:57;;;;;;;12.90;8.60;;;;;;;19.48;63.21;98519.73;106393;1274;22691;-87
2022/08/18 03:13:39;;;;;;;16.20;9.50;;;;;;;19.50;63.16;98518.22;106339;1274;22560;-88
2022/08/18 03:16:14;;;;;;;17.70;8.90;;;;;;;19.50;63.03;98515.34;106396;1274;22731;-86
2022/08/18 03:18:49;;;;;;;15.70;8.50;;;;;;;19.49;63.09;98523.57;106330;1274;22543;-87
2022/08/18 03:21:29;;;;;;;16.90;8.50;;;;;;;19.48;63.14;98526.73;106223;1274;23179;-86
2022/08/18 03:24:02;;;;;;;18.30;8.70;;;;;;;19.51;63.15;98524.27;106410;1274;22544;-87
2022/08/18 03:26:34;;;;;;;13.70;7.80;;;;;;;19.55;63.05;98527.19;106424;1274;25393;-86
2022/08/18 03:29:08;;;;;;;16.70;8.90;;;;;;;19.57;63.22;98525.82;106349;1274;23177;-90
2022/08/18 03:31:50;;;;;;;13.70;8.40;;;;;;;19.60;63.19;98529.02;106439;1274;24255;-86
2022/08/18 03:34:37;;;;;;;14.40;8.80;;;;;;;19.62;63.26;98532.34;106217;1274;24286;-87
2022/08/18 03:37:11;;;;;;;16.70;8.20;;;;;;;19.58;63.13;98533.53;106358;1274;22597;-85
2022/08/18 03:39:56;;;;;;;14.10;8.50;;;;;;;19.57;63.28;98534.74;106423;1271;25307;-87
2022/08/18 03:42:33;;;;;;;16.40;9.20;;;;;;;19.56;63.43;98535.98;106379;1273;22573;-89
2022/08/18 03:46:20;;;;;;;14.60;8.70;;;;;;;19.50;63.30;98534.42;106382;1274;22703;-86
2022/08/18 03:48:56;;;;;;;;;;;;;;;;;;;;;
2022/08/18 03:51:35;;;;;;;13.40;8.00;;;;;;;19.43;63.47;98538.63;106371;1274;24267;-85
2022/08/18 03:55:03;;;;;;;;;;;;;;;;;;;;;
2022/08/18 03:57:57;;;;;;;;;;;;;;;;;;;;;
2022/08/18 04:01:02;;;;;;;;;;;;;;;;;;;;;
2022/08/18 04:04:30;;;;;;;16.50;8.80;;;;;;;19.41;63.86;98540.59;106432;1274;23655;-86
2022/08/18 04:07:16;;;;;;;14.80;8.00;;;;;;;19.41;63.61;98547.42;106379;1274;22530;-87
2022/08/18 04:10:53;;;;;;;11.40;7.40;;;;;;;19.43;63.64;98544.45;106133;1274;22882;-90
2022/08/18 04:13:34;;;;;;;;;;;;;;;;;;;;;
2022/08/18 04:16:46;;;;;;;26.30;8.60;;;;;;;19.58;63.87;98542.55;106377;1274;22652;-86
2022/08/18 04:19:56;;;;;;;;;;;;;;;;;;;;;
2022/08/18 04:22:46;;;;;;;41.80;10.20;;;;;;;19.76;64.00;98547.10;106450;1274;25522;-86
2022/08/18 04:25:47;;;;;;;42.60;9.30;;;;;;;19.82;63.87;98542.23;106288;1274;25351;-86
2022/08/18 04:28:14;;;;;;;25.50;9.20;;;;;;;19.87;63.84;98541.54;106323;1273;24374;-85
2022/08/18 04:30:47;;;;;;;24.50;8.60;;;;;;;19.90;63.74;98536.66;106365;1274;22591;-88
2022/08/18 04:33:34;;;;;;;24.70;9.00;;;;;;;19.96;64.09;98533.92;106329;1274;22564;-85
2022/08/18 04:37:12;;;;;;;21.40;8.30;;;;;;;20.01;64.10;98535.35;106383;1274;25434;-89
2022/08/18 04:39:45;;;;;;;21.00;7.80;;;;;;;20.08;64.16;98535.13;106361;1274;22547;-91
2022/08/18 04:42:53;;;;;;;17.70;7.60;;;;;;;20.17;64.15;98532.10;106329;1274;24209;-86
2022/08/18 04:45:34;;;;;;;16.40;8.00;;;;;;;20.30;64.21;98536.02;106201;1274;25320;-88
2022/08/18 04:48:21;;;;;;;21.90;8.40;;;;;;;20.35;64.16;98540.56;106303;1274;22563;-86
2022/08/18 04:50:51;;;;;;;15.30;8.30;;;;;;;20.42;64.17;98541.95;106399;1271;24237;-88
2022/08/18 04:56:25;;;;;;;13.70;8.50;;;;;;;20.54;64.14;98539.95;106447;1274;22548;-85
2022/08/18 04:59:04;;;;;;;14.00;8.20;;;;;;;20.60;64.21;98541.96;106116;1274;24255;-86
2022/08/18 05:01:44;;;;;;;14.00;7.90;;;;;;;20.68;64.09;98542.24;106313;1273;24300;-83
2022/08/18 05:04:16;;;;;;;17.00;8.00;;;;;;;20.80;64.27;98543.04;106416;1274;25317;-86
2022/08/18 05:06:44;;;;;;;39.40;10.90;;;;;;;20.93;64.33;98543.53;106427;1274;22555;-87
2022/08/18 05:09:30;;;;;;;19.80;9.40;;;;;;;21.07;64.33;98545.92;106152;1274;22531;-89
2022/08/18 05:12:05;;;;;;;23.80;9.40;;;;;;;21.22;64.43;98548.25;106245;1274;22661;-86
2022/08/18 05:14:35;;;;;;;19.40;8.80;;;;;;;21.36;64.51;98555.96;106392;1274;22531;-86
2022/08/18 05:17:08;;;;;;;18.50;9.00;;;;;;;21.49;64.34;98555.70;106443;1274;25340;-88
2022/08/18 05:19:38;;;;;;;18.50;8.60;;;;;;;21.64;64.20;98553.66;106325;1274;22532;-87
2022/08/18 05:22:12;;;;;;;17.30;8.80;;;;;;;21.80;64.34;98550.81;106473;1274;22538;-85
2022/08/18 05:24:42;;;;;;;19.40;9.00;;;;;;;21.97;64.34;98551.77;106458;1274;26596;-88
2022/08/18 05:27:18;;;;;;;23.50;8.90;;;;;;;22.12;64.41;98551.72;106332;1274;22532;-89
2022/08/18 05:30:01;;;;;;;19.90;8.80;;;;;;;22.22;64.19;98551.55;106409;1274;22538;-88
2022/08/18 05:32:51;;;;;;;18.30;8.60;;;;;;;22.34;64.48;98550.89;106141;1274;22602;-85
2022/08/18 05:35:29;;;;;;;15.90;8.30;;;;;;;22.47;64.40;98550.23;106211;1273;22476;-87
2022/08/18 05:38:12;;;;;;;15.90;8.70;;;;;;;22.54;64.33;98548.61;106208;1274;25330;-85
2022/08/18 05:40:54;;;;;;;19.30;8.90;;;;;;;22.62;64.21;98549.98;106358;1274;25269;-87
2022/08/18 05:43:24;;;;;;;19.90;9.10;;;;;;;22.72;64.29;98551.52;106290;1274;25444;-89
2022/08/18 05:46:02;;;;;;;19.20;8.30;;;;;;;22.87;64.19;98554.30;106383;1274;24192;-86
2022/08/18 05:48:32;;;;;;;21.00;8.70;;;;;;;23.06;64.25;98552.94;106315;1274;25228;-86
2022/08/18 05:51:28;;;;;;;17.90;8.60;;;;;;;23.21;64.06;98558.99;106232;1274;22648;-86
2022/08/18 05:57:06;;;;;;;17.10;8.40;;;;;;;23.62;63.81;98558.40;106425;1274;23256;-87
2022/08/18 05:59:38;;;;;;;19.50;7.50;;;;;;;23.79;63.92;98555.34;106382;1273;25411;-86
2022/08/18 06:02:37;;;;;;;15.40;7.60;;;;;;;23.92;63.70;98553.42;106334;1274;22687;-88
2022/08/18 06:05:14;;;;;;;19.10;8.40;;;;;;;24.07;63.74;98553.90;106426;1271;22580;-87
2022/08/18 06:07:59;;;;;;;16.20;8.50;;;;;;;24.21;63.66;98555.75;106078;1274;22763;-87
2022/08/18 06:10:32;;;;;;;23.40;9.10;;;;;;;24.39;63.54;98549.13;106344;1274;22739;-86
2022/08/18 06:13:07;;;;;;;21.90;8.50;;;;;;;24.56;63.58;98546.84;106272;1274;22516;-87
2022/08/18 06:16:18;;;;;;;16.70;7.80;;;;;;;24.72;63.49;98551.94;106380;1274;25562;-85
2022/08/18 06:19:03;;;;;;;17.00;7.40;;;;;;;24.92;63.26;98554.87;105770;1279;24293;-86
2022/08/18 06:22:01;;;;;;;14.70;8.30;;;;;;;25.07;63.26;98556.19;105795;1279;23645;-88
2022/08/18 06:25:00;;;;;;;18.60;8.10;;;;;;;25.23;62.99;98560.75;105790;1279;22775;-87
2022/08/18 06:27:46;;;;;;;15.00;8.40;;;;;;;25.40;62.95;98560.30;105689;1280;22503;-88
2022/08/18 06:31:14;;;;;;;20.70;8.30;;;;;;;25.51;62.70;98561.00;105635;1280;22581;-85
2022/08/18 06:34:10;;;;;;;22.10;8.20;;;;;;;25.68;62.62;98563.31;105237;1285;22635;-86
2022/08/18 06:36:49;;;;;;;17.10;8.40;;;;;;;25.85;62.84;98564.71;105206;1286;25425;-87
2022/08/18 06:39:34;;;;;;;14.90;9.10;;;;;;;26.00;62.80;98567.25;105167;1285;22703;-87
2022/08/18 06:42:06;;;;;;;17.20;8.60;;;;;;;26.14;62.52;98570.60;105178;1285;24416;-87
2022/08/18 06:44:59;;;;;;;21.20;8.00;;;;;;;26.25;62.26;98569.80;105244;1285;25337;-90
2022/08/18 06:47:43;;;;;;;16.20;8.00;;;;;;;26.34;62.35;98564.95;105176;1285;23023;-86
2022/08/18 06:50:24;;;;;;;17.20;8.50;;;;;;;26.44;62.28;98562.00;105192;1286;22557;-89
2022/08/18 06:53:00;;;;;;;18.80;8.10;;;;;;;26.56;62.07;98564.04;105204;1280;24349;-89
2022/08/18 06:55:53;;;;;;;15.00;7.40;;;;;;;26.67;62.09;98560.55;105787;1280;22695;-87
2022/08/18 06:58:29;;;;;;;17.10;8.40;;;;;;;26.83;62.28;98556.98;105783;1279;26924;-88
2022/08/18 07:01:09;;;;;;;15.00;7.50;;;;;;;26.97;61.86;98561.92;105794;1279;22520;-88
2022/08/18 07:03:51;;;;;;;16.00;7.70;;;;;;;27.09;62.17;98568.73;105760;1280;25349;-87
2022/08/18 07:06:31;;;;;;;13.00;7.80;;;;;;;27.25;62.21;98572.29;105738;1279;24444;-87
2022/08/18 07:09:38;;;;;;;14.20;8.10;;;;;;;27.36;61.95;98567.22;106082;1273;22645;-88
2022/08/18 07:12:09;;;;;;;16.80;7.40;;;;;;;27.49;61.72;98564.22;106104;1274;22977;-89
2022/08/18 07:15:16;;;;;;;16.40;8.30;;;;;;;27.62;61.83;98559.20;106239;1274;25239;-88
2022/08/18 07:18:10;;;;;;;17.20;8.00;;;;;;;27.76;61.66;98559.20;106049;1274;24279;-88
2022/08/18 07:21:04;;;;;;;20.40;9.00;;;;;;;27.89;61.37;98551.90;106635;1274;22580;-90
2022/08/18 07:24:01;;;;;;;16.90;7.70;;;;;;;28.00;61.20;98553.89;106181;1274;23328;-86
2022/08/18 07:26:59;;;;;;;13.90;8.00;;;;;;;28.15;61.39;98552.46;106335;1273;22567;-91
2022/08/18 07:30:09;;;;;;;11.40;6.80;;;;;;;28.31;61.13;98554.80;106106;1275;24266;-92
2022/08/18 07:33:06;;;;;;;14.70;7.30;;;;;;;28.44;60.95;98551.88;106153;1273;25300;-89
2022/08/18 07:36:05;;;;;;;14.60;7.60;;;;;;;28.57;60.86;98550.21;105983;1273;22556;-89
2022/08/18 07:39:40;;;;;;;14.30;7.20;;;;;;;28.71;60.58;98548.30;106087;1273;22544;-91
2022/08/18 07:42:49;;;;;;;11.70;7.70;;;;;;;28.87;60.54;98553.05;105862;1280;22639;-88
2022/08/18 07:45:48;;;;;;;12.90;7.20;;;;;;;29.02;60.61;98552.20;106098;1280;25288;-89
2022/08/18 07:48:33;;;;;;;16.80;7.90;;;;;;;29.17;60.22;98552.02;106074;1278;23459;-88
2022/08/18 07:51:26;;;;;;;13.10;6.90;;;;;;;29.31;60.27;98553.25;106104;1280;22545;-89
2022/08/18 08:00:54;;;;;;;;;;;;;;;;;;;;;
2022/08/18 08:04:24;;;;;;;13.20;7.60;;;;;;;29.94;59.44;98567.75;108160;1266;24172;-88
2022/08/18 08:07:52;;;;;;;13.70;7.70;;;;;;;30.03;58.95;98572.54;105252;1287;24227;-89
2022/08/18 08:10:52;;;;;;;12.00;7.50;;;;;;;30.14;59.01;98579.48;105247;1286;22668;-90
2022/08/18 08:13:56;;;;;;;;;;;;;;;;;;;;;
2022/08/18 08:18:08;;;;;;;13.50;7.80;;;;;;;30.31;58.50;98582.27;105246;1287;23283;-88
2022/08/18 08:21:21;;;;;;;;;;;;;;;;;;;;;
2022/08/18 08:24:18;;;;;;;11.50;7.20;;;;;;;30.34;58.46;98590.24;105140;1287;22596;-88
2022/08/18 08:27:19;;;;;;;12.50;7.00;;;;;;;30.47;58.36;98592.77;104979;1289;23088;-89
2022/08/18 08:30:23;;;;;;;12.50;7.20;;;;;;;30.61;58.12;98592.52;105012;1288;24309;-91
2022/08/18 08:33:12;;;;;;;13.50;7.80;;;;;;;30.80;58.01;98594.05;105300;1287;22728;-89
2022/08/18 08:36:05;;;;;;;14.10;7.10;;;;;;;31.01;57.95;98597.31;105287;1287;22593;-87
2022/08/18 08:39:03;;;;;;;13.40;7.50;;;;;;;31.19;57.69;98601.56;105311;1287;22613;-91
2022/08/18 08:41:49;;;;;;;13.20;7.60;;;;;;;31.32;57.26;98595.58;105211;1287;24324;-89
2022/08/18 08:44:49;;;;;;;12.60;7.50;;;;;;;31.41;57.34;98597.56;105464;1282;24208;-89
2022/08/18 08:47:31;;;;;;;15.10;7.60;;;;;;;31.55;57.30;98600.71;105413;1281;22591;-91
2022/08/18 08:50:12;;;;;;;13.40;7.20;;;;;;;31.71;57.03;98599.48;105541;1281;22561;-90
2022/08/18 08:53:18;;;;;;;10.80;7.00;;;;;;;31.86;56.74;98592.98;105715;1281;25402;-91
2022/08/18 08:55:49;;;;;;;16.10;7.80;;;;;;;32.02;56.70;98592.05;105945;1281;22549;-91
2022/08/18 08:58:33;;;;;;;12.30;6.40;;;;;;;32.12;56.48;98591.09;105500;1281;22543;-91
2022/08/18 09:01:25;;;;;;;12.70;6.90;;;;;;;32.27;56.50;98587.58;105706;1282;22621;-90
2022/08/18 09:04:10;;;;;;;10.80;6.20;;;;;;;32.43;56.21;98577.98;106016;1281;24370;-89
2022/08/18 09:06:53;;;;;;;9.50;6.00;;;;;;;32.56;55.89;98574.77;105964;1281;22988;-87
2022/08/18 09:09:42;;;;;;;11.40;6.70;;;;;;;32.67;55.49;98576.89;105752;1281;22565;-88
2022/08/18 09:12:21;;;;;;;10.90;7.10;;;;;;;32.70;55.24;98573.52;105485;1281;22849;-89
2022/08/18 09:15:24;;;;;;;11.20;6.50;;;;;;;32.83;55.36;98575.06;106055;1281;22540;-92
2022/08/18 09:18:50;;;;;;;12.20;6.90;;;;;;;32.98;54.89;98567.81;105543;1281;25504;-90
2022/08/18 09:21:48;;;;;;;11.80;6.90;;;;;;;33.06;54.58;98560.61;106061;1281;24255;-92
2022/08/18 09:24:44;;;;;;;11.80;6.60;;;;;;;33.15;54.84;98550.20;105662;1281;25459;-92
2022/08/18 09:27:53;;;;;;;11.80;7.00;;;;;;;33.25;54.35;98546.55;105878;1281;22560;-92
2022/08/18 09:31:14;;;;;;;12.00;6.20;;;;;;;33.40;54.12;98545.73;106409;1281;22661;-90
2022/08/18 09:34:23;;;;;;;8.60;5.10;;;;;;;33.48;53.64;98547.05;106443;1281;22594;-86
2022/08/18 09:37:11;;;;;;;11.80;5.30;;;;;;;33.50;53.21;98539.69;105732;1281;22564;-87
2022/08/18 09:42:43;;;;;;;10.10;5.30;;;;;;;33.59;52.63;98526.89;105814;1281;22569;-93
2022/08/18 09:45:33;;;;;;;10.70;5.20;;;;;;;33.60;52.34;98532.36;105956;1281;24671;-92
2022/08/18 09:48:10;;;;;;;10.80;5.80;;;;;;;33.65;52.00;98526.33;106549;1281;22718;-93
2022/08/18 09:51:38;;;;;;;12.60;5.90;;;;;;;33.74;52.09;98525.14;106074;1281;22743;-90
2022/08/18 09:54:20;;;;;;;10.00;6.70;;;;;;;33.92;52.00;98523.47;106110;1284;24296;-90
2022/08/18 09:57:07;;;;;;;13.90;6.50;;;;;;;34.00;51.96;98516.45;106149;1281;22566;-92
2022/08/18 09:59:37;;;;;;;13.10;5.40;;;;;;;34.09;51.70;98513.45;105645;1281;24701;-89
2022/08/18 10:02:34;;;;;;;8.90;5.20;;;;;;;34.14;51.05;98503.55;106216;1281;22892;-90
2022/08/18 10:05:22;;;;;;;8.80;4.90;;;;;;;34.20;50.76;98497.16;105078;1287;25502;-91
2022/08/18 10:08:19;;;;;;;9.90;4.90;;;;;;;34.16;50.34;98492.68;105522;1287;25384;-91
2022/08/18 10:11:10;;;;;;;10.10;5.10;;;;;;;34.21;50.29;98484.59;105311;1287;23632;-92
2022/08/18 10:14:38;;;;;;;9.70;5.40;;;;;;;34.25;49.92;98483.15;105435;1288;22944;-91
2022/08/18 10:17:44;;;;;;;7.70;5.20;;;;;;;34.25;49.61;98485.37;105420;1287;25557;-90
2022/08/18 10:20:34;;;;;;;9.30;5.40;;;;;;;34.22;49.57;98478.54;105311;1287;23069;-94
2022/08/18 10:24:02;;;;;;;11.70;5.20;;;;;;;34.28;49.32;98473.38;105504;1291;25850;-92
2022/08/18 10:26:42;;;;;;;10.80;5.10;;;;;;;34.46;49.24;98473.45;104462;1296;22602;-90
2022/08/18 10:29:37;;;;;;;9.50;5.30;;;;;;;34.50;48.78;98483.20;104381;1297;23928;-89
2022/08/18 10:32:16;;;;;;;8.60;5.00;;;;;;;34.51;48.69;98482.98;104619;1294;22597;-92
2022/08/18 10:35:00;;;;;;;9.80;5.60;;;;;;;34.54;48.36;98481.18;104706;1297;22617;-90
2022/08/18 10:38:16;;;;;;;9.60;5.30;;;;;;;34.61;48.39;98479.84;104649;1296;22997;-90
2022/08/18 10:41:24;;;;;;;10.00;5.20;;;;;;;34.66;47.97;98488.09;103909;1302;25408;-91
2022/08/18 10:44:05;;;;;;;9.30;5.80;;;;;;;34.66;47.82;98482.48;104432;1296;22602;-91
2022/08/18 10:46:47;;;;;;;12.10;5.80;;;;;;;34.71;47.66;98480.82;104734;1297;24345;-89
2022/08/18 10:49:33;;;;;;;10.50;6.20;;;;;;;34.79;47.58;98477.91;104787;1294;22594;-91
2022/08/18 10:52:27;;;;;;;10.80;6.50;;;;;;;34.89;47.67;98477.44;104228;1297;23986;-90
2022/08/18 10:55:08;;;;;;;10.70;6.00;;;;;;;35.03;47.13;98482.52;104238;1297;22688;-90
2022/08/18 10:58:39;;;;;;;10.50;6.40;;;;;;;35.00;46.89;98487.02;104383;1297;22863;-90
2022/08/18 11:02:01;;;;;;;9.80;6.10;;;;;;;35.03;46.71;98487.23;104151;1301;24969;-93
2022/08/18 11:04:49;;;;;;;8.80;6.10;;;;;;;35.09;46.42;98488.20;104152;1294;22560;-91
2022/08/18 11:07:41;;;;;;;10.60;6.70;;;;;;;35.06;46.39;98484.95;103930;1297;22580;-90
2022/08/18 11:10:37;;;;;;;9.50;6.60;;;;;;;35.04;46.09;98478.62;104203;1297;24236;-88
2022/08/18 11:14:02;;;;;;;10.70;6.60;;;;;;;35.01;46.13;98470.15;105321;1294;24019;-90
2022/08/18 11:17:21;;;;;;;11.70;6.80;;;;;;;35.11;46.36;98471.77;105548;1290;22603;-90
2022/08/18 11:20:08;;;;;;;;;;;;;;;;;;;;;
2022/08/18 11:23:26;;;;;;;14.30;6.60;;;;;;;35.17;45.60;98463.79;104934;1290;22818;-91
2022/08/18 11:26:51;;;;;;;11.40;6.80;;;;;;;35.18;45.76;98452.09;104965;1291;23827;-93
2022/08/18 11:30:07;;;;;;;11.40;7.20;;;;;;;35.26;45.47;98452.44;104876;1298;22623;-90
2022/08/18 11:33:14;;;;;;;13.80;7.50;;;;;;;35.28;45.42;98453.87;104473;1296;22735;-89
2022/08/18 11:36:19;;;;;;;10.20;6.50;;;;;;;35.33;45.17;98458.01;104247;1297;23482;-90
2022/08/18 11:39:08;;;;;;;12.70;6.80;;;;;;;35.22;44.91;98462.89;104727;1290;25644;-91
2022/08/18 11:41:48;;;;;;;11.60;7.30;;;;;;;34.92;44.68;98458.80;104569;1291;25379;-90
2022/08/18 11:44:42;;;;;;;10.60;6.70;;;;;;;34.78;44.89;98461.48;104609;1290;22560;-89
2022/08/18 11:51:32;;;;;;;11.90;6.80;;;;;;;34.70;44.74;98455.02;105134;1293;24259;-90
2022/08/18 11:54:49;;;;;;;12.40;6.90;;;;;;;34.73;44.35;98451.29;104551;1294;24256;-91
2022/08/18 11:58:19;;;;;;;12.40;7.20;;;;;;;34.74;44.29;98445.20;104800;1290;22552;-90
2022/08/18 12:02:24;;;;;;;11.20;7.40;;;;;;;34.78;44.04;98453.73;104727;1290;22768;-92
2022/08/18 12:05:38;;;;;;;;;;;;;;;;;;;;;
2022/08/18 12:08:32;;;;;;;;;;;;;;;;;;;;;
2022/08/18 12:11:40;;;;;;;;;;;;;;;;;;;;;
2022/08/18 12:14:35;;;;;;;10.50;6.50;;;;;;;34.88;43.64;98469.89;106674;1280;22499;-90
2022/08/18 12:17:18;;;;;;;;;;;;;;;;;;;;;
2022/08/18 12:29:46;;;;;;;;;;;;;;;;;;;;;
2022/08/18 12:37:18;;;;;;;11.40;5.90;;;;;;;34.82;42.56;98459.44;105346;1285;22685;-91
2022/08/18 12:39:54;;;;;;;11.50;6.80;;;;;;;34.74;42.35;98459.05;106036;1285;22724;-90
2022/08/18 12:42:44;;;;;;;;;;;;;;;;;;;;;
2022/08/18 12:49:38;;;;;;;18.60;7.00;;;;;;;34.76;42.33;98454.13;105574;1288;23391;-91
2022/08/18 12:52:27;;;;;;;9.10;5.50;;;;;;;34.84;42.41;98452.70;105248;1288;22581;-90
2022/08/18 12:55:07;;;;;;;11.40;6.00;;;;;;;34.95;41.98;98453.74;105568;1289;22567;-91
2022/08/18 12:57:34;;;;;;;11.70;6.80;;;;;;;34.80;41.82;98455.44;105574;1288;22565;-91
2022/08/18 13:08:25;;;;;;;10.20;6.20;;;;;;;34.28;41.54;98446.17;104329;1297;25762;-91
2022/08/18 13:12:47;;;;;;;11.10;6.70;;;;;;;33.93;41.65;98440.92;106115;1285;24232;-89
2022/08/18 13:15:20;;;;;;;10.40;6.80;;;;;;;33.69;41.66;98432.60;105734;1285;22576;-90
2022/08/18 13:17:53;;;;;;;11.00;7.00;;;;;;;33.71;41.32;98428.16;105157;1288;24248;-89
2022/08/18 13:20:26;;;;;;;12.80;6.70;;;;;;;33.59;41.47;98423.95;105051;1285;24485;-89
2022/08/18 13:23:04;;;;;;;9.80;6.60;;;;;;;33.36;41.47;98420.02;105972;1287;22611;-91
2022/08/18 13:25:38;;;;;;;14.80;7.30;;;;;;;33.18;41.65;98421.67;105599;1287;25441;-92
2022/08/18 13:28:10;;;;;;;12.10;7.30;;;;;;;33.10;41.81;98427.36;105768;1287;25367;-92
2022/08/18 13:30:45;;;;;;;13.00;7.00;;;;;;;33.06;41.99;98422.86;105859;1286;22606;-92
2022/08/18 13:33:20;;;;;;;11.40;7.10;;;;;;;33.06;41.84;98421.09;105395;1285;22566;-93
2022/08/18 13:35:52;;;;;;;12.20;7.60;;;;;;;33.10;41.91;98417.06;105902;1287;22564;-90
2022/08/18 13:38:31;;;;;;;12.90;7.50;;;;;;;33.39;42.23;98412.05;105744;1287;22770;-90
2022/08/18 13:41:03;;;;;;;11.10;7.20;;;;;;;33.73;42.02;98405.73;105627;1289;22595;-91
2022/08/18 13:43:37;;;;;;;14.20;6.60;;;;;;;34.00;41.63;98401.75;105615;1288;22588;-91
2022/08/18 13:46:21;;;;;;;;;;;;;;;;;;;;;
2022/08/18 13:49:19;;;;;;;11.50;6.20;;;;;;;34.33;41.53;98401.59;106286;1276;26542;-90
2022/08/18 13:52:13;;;;;;;11.70;7.00;;;;;;;34.40;41.33;98398.96;106221;1277;23849;-91
2022/08/18 13:54:51;;;;;;;12.70;6.60;;;;;;;34.38;41.19;98390.16;106887;1277;22592;-92
2022/08/18 13:58:12;;;;;;;12.20;6.90;;;;;;;34.46;41.39;98389.77;106297;1282;24290;-92
2022/08/18 14:00:58;;;;;;;12.10;6.80;;;;;;;34.52;41.16;98387.15;106615;1284;22793;-93
2022/08/18 14:03:36;;;;;;;14.40;6.80;;;;;;;34.52;41.03;98382.88;105613;1283;22578;-93
2022/08/18 14:06:08;;;;;;;14.80;7.20;;;;;;;34.46;40.77;98379.96;105593;1284;23002;-91
2022/08/18 14:13:27;;;;;;;12.60;6.80;;;;;;;34.45;40.95;98373.88;105819;1290;22523;-93
2022/08/18 14:16:05;;;;;;;9.60;5.60;;;;;;;34.46;40.78;98365.10;105281;1289;25392;-88
2022/08/18 14:18:35;;;;;;;11.90;6.30;;;;;;;34.46;40.68;98359.67;105420;1290;23735;-91
2022/08/18 14:27:17;;;;;;;11.70;6.10;;;;;;;34.44;40.23;98362.45;104845;1290;22550;-89
2022/08/18 14:30:29;;;;;;;;;;;;;;;;;;;;;
2022/08/18 14:34:22;;;;;;;;;;;;;;;;;;;;;
2022/08/18 14:37:32;;;;;;;9.90;5.90;;;;;;;34.37;40.15;98362.61;105253;1291;23492;-90